Time;durP1;ratioP1;P1;durP2;ratioP2;P2;SDS_P1;SDS_P2;PMS_P1;PMS_P2;Temp;Humidity;BMP_temperature;BMP_pressure;BME280_temperature;BME280_humidity;BME280_pressure;Samples;Min_cycle;Max_cycle;Signal;HPM_P1;HPM_P2
2023/04/14 00:00:39;;;;;;;11.73;8.20;;;;;;;14.18;58.74;93934.72;5074238;28;20498;-79
2023/04/14 00:03:08;;;;;;;13.30;8.23;;;;;;;14.19;57.92;93927.63;5074198;28;20452;-79
2023/04/14 00:05:35;;;;;;;11.10;8.13;;;;;;;14.10;58.50;93928.66;5073861;28;20818;-78
2023/04/14 00:08:02;;;;;;;14.17;8.70;;;;;;;14.10;58.64;93929.47;5074166;28;20927;-79
2023/04/14 00:10:29;;;;;;;10.67;7.73;;;;;;;14.06;58.75;93922.91;5038816;28;20946;-79
2023/04/14 00:12:55;;;;;;;7.63;5.70;;;;;;;14.02;58.20;93920.81;5074084;28;20448;-79
2023/04/14 00:15:22;;;;;;;7.30;5.40;;;;;;;14.05;58.30;93913.34;5074092;28;20445;-79
2023/04/14 00:17:49;;;;;;;5.40;4.47;;;;;;;14.12;58.00;93909.03;5074532;28;20485;-78
2023/04/14 00:20:17;;;;;;;4.90;4.50;;;;;;;14.26;57.68;93912.72;5073728;28;20802;-79
2023/04/14 00:22:44;;;;;;;10.33;4.83;;;;;;;14.38;57.35;93907.84;5074032;28;20432;-79
2023/04/14 00:25:11;;;;;;;5.63;4.70;;;;;;;14.42;57.21;93885.38;5074290;28;20429;-79
2023/04/14 00:27:37;;;;;;;5.03;4.57;;;;;;;14.48;56.86;93884.72;5074472;28;20434;-79
2023/04/14 00:30:05;;;;;;;5.30;4.50;;;;;;;14.50;57.40;93888.00;5073809;28;20443;-80
2023/04/14 00:32:32;;;;;;;6.03;4.60;;;;;;;14.50;56.83;93885.34;5074361;28;20444;-81
2023/04/14 00:35:02;;;;;;;4.70;4.27;;;;;;;14.48;56.93;93880.25;5073497;28;20441;-80
2023/04/14 00:37:30;;;;;;;5.37;4.70;;;;;;;14.47;56.77;93878.63;5073723;28;20437;-79
2023/04/14 00:39:57;;;;;;;5.60;5.10;;;;;;;14.20;57.85;93898.44;5074033;28;20773;-80
2023/04/14 00:42:24;;;;;;;9.53;5.97;;;;;;;14.00;58.12;93899.06;5073652;28;20558;-79
2023/04/14 00:44:50;;;;;;;10.57;6.80;;;;;;;14.05;58.08;93909.91;5073797;28;20447;-79
2023/04/14 00:47:18;;;;;;;15.03;9.13;;;;;;;14.07;58.74;93915.81;5073667;28;20440;-78
2023/04/14 00:49:44;;;;;;;13.70;10.30;;;;;;;13.79;60.71;93905.78;5073405;28;20463;-79
2023/04/14 00:52:11;;;;;;;12.67;8.70;;;;;;;13.73;60.68;93906.47;5073869;28;20443;-79
2023/04/14 00:54:42;;;;;;;19.80;9.87;;;;;;;13.69;61.22;93909.63;5074513;28;20433;-79
2023/04/14 00:57:09;;;;;;;13.77;10.37;;;;;;;13.71;60.91;93903.19;5073131;28;20453;-79
2023/04/14 00:59:37;;;;;;;11.63;9.13;;;;;;;13.53;61.43;93900.78;5073551;28;20823;-79
2023/04/14 01:02:04;;;;;;;14.97;9.13;;;;;;;13.51;61.82;93902.78;5074562;28;20487;-80
2023/04/14 01:04:31;;;;;;;14.40;9.20;;;;;;;13.56;61.90;93892.53;5074723;28;20446;-78
2023/04/14 01:06:58;;;;;;;14.00;9.13;;;;;;;13.61;61.86;93882.31;5080071;28;20442;-79
2023/04/14 01:09:25;;;;;;;10.40;7.57;;;;;;;13.66;61.83;93879.16;5080278;28;20450;-79
2023/04/14 01:12:06;;;;;;;14.90;8.33;;;;;;;13.72;61.66;93893.47;5079953;28;20421;-79
2023/04/14 01:14:38;;;;;;;12.80;8.57;;;;;;;13.70;61.50;93895.44;5080415;28;20458;-79
2023/04/14 01:17:12;;;;;;;17.00;8.00;;;;;;;13.76;60.98;93890.31;5080828;28;20472;-79
2023/04/14 01:19:58;;;;;;;19.70;9.30;;;;;;;13.78;61.70;93892.75;5079948;28;20901;-78
2023/04/14 01:22:29;;;;;;;8.87;7.13;;;;;;;13.79;61.09;93881.22;5079595;28;20490;-78
2023/04/14 01:25:16;;;;;;;11.70;7.10;;;;;;;13.78;61.38;93884.84;5080377;28;20537;-79
2023/04/14 01:28:09;;;;;;;9.60;7.03;;;;;;;13.79;61.47;93886.50;5080039;28;20437;-79
2023/04/14 01:30:50;;;;;;;9.63;7.40;;;;;;;13.81;61.40;93884.50;5061900;28;20445;-79
2023/04/14 01:33:25;;;;;;;8.03;6.83;;;;;;;13.79;61.12;93881.22;5080217;28;20444;-79
2023/04/14 01:35:55;;;;;;;9.87;8.57;;;;;;;13.77;61.62;93881.41;5061250;28;20440;-79
2023/04/14 01:38:27;;;;;;;12.77;7.00;;;;;;;13.67;62.01;93874.72;5079726;28;20950;-79
2023/04/14 01:40:57;;;;;;;12.83;7.90;;;;;;;13.64;61.89;93891.69;5079627;28;20499;-80
2023/04/14 01:43:28;;;;;;;9.53;7.53;;;;;;;13.66;62.03;93887.06;5079857;28;20511;-80
2023/04/14 01:45:57;;;;;;;10.67;7.27;;;;;;;13.70;62.46;93891.00;5079672;28;20892;-80
2023/04/14 01:48:28;;;;;;;10.70;7.67;;;;;;;13.76;62.20;93884.22;5079504;28;20468;-79
2023/04/14 01:50:56;;;;;;;8.37;6.30;;;;;;;13.74;61.33;93873.84;5079985;28;20443;-78
2023/04/14 01:53:24;;;;;;;10.27;7.73;;;;;;;13.75;61.51;93879.94;5079764;28;20433;-79
2023/04/14 01:55:53;;;;;;;7.87;6.50;;;;;;;13.76;61.32;93884.22;5044481;28;20502;-79
2023/04/14 01:58:21;;;;;;;10.87;7.70;;;;;;;13.75;61.53;93893.13;5060892;28;20884;-79
2023/04/14 02:00:51;;;;;;;9.43;7.30;;;;;;;13.76;61.64;93879.75;5079628;28;20437;-79
2023/04/14 02:03:21;;;;;;;7.50;5.40;;;;;;;13.76;61.55;93886.84;5079477;28;20444;-79
2023/04/14 02:05:53;;;;;;;5.03;4.63;;;;;;;13.79;61.25;93883.84;5079112;28;20429;-79
2023/04/14 02:08:21;;;;;;;6.83;5.50;;;;;;;13.78;61.24;93876.94;5079357;28;20451;-79
2023/04/14 02:10:50;;;;;;;6.60;4.93;;;;;;;13.82;60.72;93875.59;5079467;28;20861;-79
2023/04/14 02:13:19;;;;;;;12.57;6.00;;;;;;;13.81;60.60;93879.22;5079708;28;20437;-79
2023/04/14 02:15:49;;;;;;;6.67;5.40;;;;;;;13.83;61.11;93887.78;5078968;28;20441;-79
2023/04/14 02:18:19;;;;;;;10.40;6.10;;;;;;;13.85;61.05;93893.69;5076494;28;20438;-79
2023/04/14 02:20:47;;;;;;;5.13;4.63;;;;;;;13.84;60.90;93882.34;5057620;28;20515;-80
2023/04/14 02:23:15;;;;;;;7.83;5.30;;;;;;;13.85;60.86;93893.69;5075764;28;20539;-79
2023/04/14 02:25:51;;;;;;;16.77;5.80;;;;;;;13.74;61.30;93886.19;5076276;28;20448;-79
2023/04/14 02:28:21;;;;;;;7.40;5.10;;;;;;;13.64;61.60;93881.97;5075702;28;20517;-79
2023/04/14 02:30:52;;;;;;;4.70;4.17;;;;;;;13.63;61.55;93864.53;5075873;28;20492;-79
2023/04/14 02:33:22;;;;;;;8.17;5.73;;;;;;;13.78;61.03;93884.84;5075938;28;20450;-79
2023/04/14 02:35:58;;;;;;;5.73;5.13;;;;;;;13.84;61.18;93887.59;5057667;28;20445;-79
2023/04/14 02:38:36;;;;;;;8.40;5.40;;;;;;;13.90;61.45;93902.75;5076669;28;20441;-79
2023/04/14 02:41:08;;;;;;;6.30;5.20;;;;;;;13.84;61.58;93892.06;5075729;28;20995;-79
2023/04/14 02:43:42;;;;;;;7.50;5.43;;;;;;;13.83;61.99;93891.25;5075964;28;20458;-79
2023/04/14 02:46:11;;;;;;;6.37;5.60;;;;;;;13.86;61.12;93874.25;5075539;28;21291;-79
2023/04/14 02:48:41;;;;;;;6.27;4.60;;;;;;;13.86;61.20;93874.25;5075955;28;20497;-79
2023/04/14 02:51:10;;;;;;;9.20;5.07;;;;;;;13.89;61.11;93897.66;5057529;28;20437;-79
2023/04/14 02:53:39;;;;;;;9.73;5.33;;;;;;;13.85;61.35;93875.25;5075774;28;20920;-79
2023/04/14 02:56:07;;;;;;;5.80;5.20;;;;;;;13.73;61.59;93892.47;5076002;28;20445;-79
2023/04/14 02:58:34;;;;;;;9.93;5.57;;;;;;;13.69;61.63;93880.63;5075454;28;20449;-79
2023/04/14 03:01:02;;;;;;;6.40;4.97;;;;;;;13.63;62.37;93885.59;5075688;28;20442;-79
2023/04/14 03:03:30;;;;;;;7.40;5.27;;;;;;;13.64;62.12;93867.97;5075619;28;20452;-80
2023/04/14 03:05:57;;;;;;;5.70;5.03;;;;;;;13.71;61.75;93876.00;5076411;28;20427;-78
2023/04/14 03:08:26;;;;;;;5.70;5.23;;;;;;;13.68;61.96;93855.25;5076085;28;20448;-79
2023/04/14 03:10:55;;;;;;;14.83;6.37;;;;;;;13.49;61.74;93854.69;5075302;28;20997;-79
2023/04/14 03:13:24;;;;;;;8.50;6.20;;;;;;;13.62;62.22;93859.41;5075160;28;20535;-80
2023/04/14 03:15:52;;;;;;;10.23;5.83;;;;;;;13.72;62.45;93856.56;5075236;28;20849;-79
2023/04/14 03:18:21;;;;;;;5.67;5.07;;;;;;;13.78;62.11;93843.47;5075355;28;20438;-79
2023/04/14 03:20:50;;;;;;;7.87;5.60;;;;;;;13.86;62.20;93847.88;5066625;28;20470;-79
2023/04/14 03:23:20;;;;;;;10.40;6.00;;;;;;;13.90;62.46;93849.19;5074726;28;20514;-79
2023/04/14 03:25:48;;;;;;;10.57;5.83;;;;;;;13.93;62.33;93843.56;5074837;28;20449;-79
2023/04/14 03:28:22;;;;;;;11.77;5.90;;;;;;;13.98;61.83;93857.03;5074126;28;20442;-79
2023/04/14 03:30:53;;;;;;;7.00;5.30;;;;;;;13.99;61.56;93850.75;5072861;28;20442;-79
2023/04/14 03:33:24;;;;;;;8.47;5.60;;;;;;;13.98;61.93;93857.03;5074955;28;20444;-81
2023/04/14 03:35:55;;;;;;;12.00;7.80;;;;;;;13.89;61.72;93844.91;5074995;28;20435;-80
2023/04/14 03:38:26;;;;;;;7.97;7.17;;;;;;;13.86;62.36;93853.16;5056116;28;20453;-79
2023/04/14 03:40:54;;;;;;;13.87;9.30;;;;;;;13.84;62.21;93836.69;5074908;28;20431;-79
2023/04/14 03:43:23;;;;;;;11.23;7.20;;;;;;;13.80;62.48;93838.03;5074688;28;20478;-76
2023/04/14 03:45:51;;;;;;;16.17;9.80;;;;;;;13.63;62.70;93826.78;5074471;28;20434;-79
2023/04/14 03:48:20;;;;;;;28.00;15.93;;;;;;;13.64;63.17;93820.53;5074217;28;20446;-77
2023/04/14 03:50:50;;;;;;;34.30;20.60;;;;;;;13.52;63.88;93809.53;5074242;28;20446;-78
2023/04/14 03:53:20;;;;;;;23.93;14.70;;;;;;;13.46;63.91;93810.25;5074992;28;20437;-79
2023/04/14 03:55:49;;;;;;;27.97;9.37;;;;;;;12.95;66.69;93801.91;5056361;28;20493;-81
2023/04/14 03:58:17;;;;;;;7.80;6.73;;;;;;;12.38;70.42;93803.88;5074509;28;20520;-79
2023/04/14 04:00:46;;;;;;;13.17;8.27;;;;;;;12.36;69.77;93798.78;5074017;28;20433;-80
2023/04/14 04:03:14;;;;;;;8.97;6.40;;;;;;;12.40;69.40;93791.38;5055903;28;20820;-80
2023/04/14 04:05:42;;;;;;;11.03;6.07;;;;;;;12.47;69.32;93795.00;5074343;28;20451;-79
2023/04/14 04:08:10;;;;;;;14.53;6.57;;;;;;;12.60;69.75;93791.84;5074730;28;20433;-80
2023/04/14 04:10:38;;;;;;;10.00;7.00;;;;;;;12.71;69.88;93788.81;5074242;28;20443;-80
2023/04/14 04:13:10;;;;;;;8.43;6.77;;;;;;;12.85;69.00;93779.41;5074295;28;20429;-79
2023/04/14 04:15:38;;;;;;;9.33;7.30;;;;;;;12.96;68.10;93785.09;5055200;28;20485;-78
2023/04/14 04:18:08;;;;;;;7.93;7.13;;;;;;;12.85;67.98;93782.03;5073868;28;20448;-78
2023/04/14 04:20:37;;;;;;;9.50;7.97;;;;;;;12.83;68.85;93791.94;5074064;28;20452;-78
2023/04/14 04:23:07;;;;;;;15.60;8.17;;;;;;;12.79;68.86;93782.72;5073615;28;20488;-78
2023/04/14 04:25:36;;;;;;;14.53;7.03;;;;;;;12.85;67.78;93788.13;5074188;28;20484;-79
2023/04/14 04:28:03;;;;;;;8.90;6.80;;;;;;;13.02;66.94;93791.53;5074186;28;20449;-77
2023/04/14 04:30:32;;;;;;;11.00;7.63;;;;;;;13.12;65.78;93801.84;5073170;28;20453;-78
2023/04/14 04:32:59;;;;;;;12.23;8.37;;;;;;;13.17;66.56;93795.09;5074031;28;20492;-80
2023/04/14 04:35:28;;;;;;;5.90;5.40;;;;;;;13.09;65.71;93796.91;5073663;28;20438;-76
2023/04/14 04:37:56;;;;;;;14.23;10.13;;;;;;;12.93;66.25;93789.91;5073505;28;20448;-77
2023/04/14 04:40:23;;;;;;;14.80;7.10;;;;;;;13.06;66.03;93802.53;5073042;28;20449;-77
2023/04/14 04:42:49;;;;;;;9.00;7.03;;;;;;;13.15;70.01;93793.59;5073719;28;20547;-81
2023/04/14 04:45:44;;;;;;;8.23;7.40;;;;;;;14.80;72.99;93810.47;5073541;28;20435;-81
2023/04/14 04:48:10;;;;;;;5.33;4.67;;;;;;;15.85;63.24;93809.28;5038351;28;20446;-81
2023/04/14 04:50:39;;;;;;;5.60;5.07;;;;;;;16.69;59.55;93808.38;5073097;28;20441;-77
2023/04/14 04:53:05;;;;;;;9.10;6.00;;;;;;;17.14;57.52;93827.41;5073495;28;20417;-81
2023/04/14 04:58:54;;;;;;;7.50;4.50;;;;;;;17.85;58.76;93825.28;5072846;28;20846;-79
2023/04/14 05:01:21;;;;;;;15.70;5.33;;;;;;;17.99;56.46;93825.31;5073707;28;20436;-80
2023/04/14 05:03:48;;;;;;;6.40;4.30;;;;;;;17.84;49.65;93831.59;5073754;28;20495;-78
2023/04/14 05:06:16;;;;;;;5.27;4.40;;;;;;;17.25;49.59;93818.91;5073327;28;20474;-79
2023/04/14 05:08:43;;;;;;;8.70;4.47;;;;;;;16.86;50.61;93818.69;5073350;28;20487;-78
2023/04/14 05:11:10;;;;;;;5.93;4.33;;;;;;;16.26;52.12;93818.22;5073085;28;21006;-77
2023/04/14 05:13:36;;;;;;;5.07;4.50;;;;;;;15.92;53.47;93810.19;5073250;28;21154;-78
2023/04/14 05:16:04;;;;;;;6.97;4.90;;;;;;;15.47;54.78;93825.31;5073535;28;20527;-79
2023/04/14 05:18:31;;;;;;;6.90;5.30;;;;;;;15.21;56.38;93822.34;5073301;28;20440;-79
2023/04/14 05:21:04;;;;;;;5.30;4.30;;;;;;;14.82;56.71;93819.03;5054675;28;20468;-79
2023/04/14 05:23:35;;;;;;;8.50;4.97;;;;;;;14.34;57.54;93811.56;5071924;28;20558;-79
2023/04/14 05:26:03;;;;;;;12.07;6.50;;;;;;;14.02;61.21;93805.56;5073543;28;20436;-79
2023/04/14 05:28:30;;;;;;;9.57;5.97;;;;;;;14.02;61.77;93802.94;5073368;28;20431;-80
2023/04/14 05:30:57;;;;;;;12.87;6.73;;;;;;;14.00;62.21;93812.03;5073402;28;20547;-79
2023/04/14 05:33:23;;;;;;;7.63;6.43;;;;;;;13.96;62.81;93808.91;5072890;28;20444;-78
2023/04/14 05:35:50;;;;;;;7.37;6.60;;;;;;;13.90;62.71;93802.53;5073322;28;20445;-78
2023/04/14 05:38:18;;;;;;;6.50;5.10;;;;;;;13.72;61.61;93780.09;5072739;28;20442;-78
2023/04/14 05:40:47;;;;;;;8.80;5.60;;;;;;;13.40;63.51;93784.59;5073144;28;20470;-79
2023/04/14 05:43:15;;;;;;;15.20;7.37;;;;;;;13.24;66.95;93776.78;5073765;28;20473;-79
2023/04/14 05:45:42;;;;;;;11.63;5.87;;;;;;;13.25;65.56;93750.25;5073253;28;20457;-79
2023/04/14 05:48:08;;;;;;;13.23;6.60;;;;;;;13.55;67.94;93751.22;5073114;28;20429;-79
2023/04/14 05:50:36;;;;;;;13.17;6.40;;;;;;;13.80;65.75;93748.38;5073391;28;20457;-78
2023/04/14 05:53:03;;;;;;;10.63;6.37;;;;;;;13.83;66.66;93742.75;5076972;28;20436;-79
2023/04/14 05:55:31;;;;;;;9.17;6.20;;;;;;;14.01;64.96;93739.81;5076626;28;20461;-79
2023/04/14 05:57:59;;;;;;;7.30;6.60;;;;;;;14.08;69.84;93748.63;5076504;28;20450;-79
2023/04/14 06:00:26;;;;;;;9.50;6.23;;;;;;;14.27;67.05;93745.50;5076203;28;20456;-78
2023/04/14 06:02:53;;;;;;;17.30;6.13;;;;;;;14.42;66.34;93732.28;5075686;28;20474;-79
2023/04/14 06:05:20;;;;;;;15.40;6.60;;;;;;;14.64;64.70;93734.06;5074854;28;20454;-78
2023/04/14 06:07:46;;;;;;;12.63;6.93;;;;;;;14.83;65.57;93741.44;5075531;28;20987;-78
2023/04/14 06:10:13;;;;;;;10.57;7.10;;;;;;;14.96;63.88;93719.63;5075745;28;20947;-78
2023/04/14 06:12:40;;;;;;;10.23;6.90;;;;;;;15.12;63.68;93721.25;5075589;28;20911;-77
2023/04/14 06:15:09;;;;;;;11.77;6.70;;;;;;;15.29;66.02;93714.69;5056945;28;20941;-80
2023/04/14 06:17:36;;;;;;;10.70;6.60;;;;;;;15.50;66.18;93724.47;5068582;28;20477;-79
2023/04/14 06:20:03;;;;;;;7.70;5.67;;;;;;;15.59;61.26;93714.63;5074088;28;20445;-78
2023/04/14 06:22:30;;;;;;;9.17;6.10;;;;;;;15.71;61.03;93713.13;5064792;28;20573;-79
2023/04/14 06:24:57;;;;;;;10.17;7.07;;;;;;;15.80;60.52;93710.16;5073730;28;20453;-78
2023/04/14 06:27:24;;;;;;;6.57;5.30;;;;;;;15.89;59.54;93710.00;5046210;28;20463;-77
2023/04/14 06:29:51;;;;;;;7.17;6.43;;;;;;;15.89;58.49;93700.22;5074904;28;20453;-77
2023/04/14 06:32:20;;;;;;;12.30;6.73;;;;;;;16.01;58.71;93698.72;5074638;28;20997;-80
2023/04/14 06:34:47;;;;;;;8.90;7.17;;;;;;;15.99;56.25;93682.22;5075262;28;20446;-78
2023/04/14 06:37:15;;;;;;;10.87;6.43;;;;;;;16.01;55.82;93671.44;5075695;28;20981;-80
2023/04/14 06:39:41;;;;;;;11.33;5.97;;;;;;;16.11;57.63;93662.13;5075740;28;20437;-79
2023/04/14 06:42:11;;;;;;;8.63;4.00;;;;;;;16.08;54.65;93661.72;5075874;28;20458;-80
2023/04/14 06:44:38;;;;;;;6.47;4.50;;;;;;;15.66;54.27;93646.75;5075758;28;20452;-80
2023/04/14 06:47:05;;;;;;;8.57;5.03;;;;;;;15.66;53.68;93641.47;5076261;28;20956;-81
2023/04/14 06:49:34;;;;;;;9.13;4.80;;;;;;;15.69;54.33;93631.31;5069561;28;20457;-82
2023/04/14 06:52:00;;;;;;;5.73;3.90;;;;;;;15.74;53.01;93626.28;5060818;28;21186;-82
2023/04/14 06:54:30;;;;;;;4.23;3.80;;;;;;;15.75;53.02;93611.22;5075397;28;20437;-81
2023/04/14 06:56:57;;;;;;;5.57;3.93;;;;;;;15.72;53.36;93616.91;5075406;28;20955;-81
2023/04/14 06:59:26;;;;;;;4.87;4.37;;;;;;;15.83;53.03;93610.25;5076010;28;20451;-81
2023/04/14 07:01:53;;;;;;;10.57;4.10;;;;;;;15.78;54.55;93603.72;5076300;28;20456;-81
2023/04/14 07:04:20;;;;;;;3.60;3.30;;;;;;;15.92;54.95;93611.75;5075036;28;20904;-80
2023/04/14 07:06:50;;;;;;;5.27;3.80;;;;;;;15.93;53.51;93606.28;5075880;28;20441;-81
2023/04/14 07:09:17;;;;;;;4.63;4.10;;;;;;;16.07;52.67;93613.25;5075794;28;20795;-81
2023/04/14 07:11:45;;;;;;;8.23;4.33;;;;;;;16.23;54.81;93600.75;5074300;28;20451;-81
2023/04/14 07:14:12;;;;;;;5.90;3.83;;;;;;;16.41;54.84;93593.88;5073842;28;20502;-82
2023/04/14 07:16:38;;;;;;;5.33;4.10;;;;;;;16.62;54.06;93614.16;5073962;28;20483;-82
2023/04/14 07:19:06;;;;;;;8.40;4.07;;;;;;;16.91;54.04;93593.69;5073604;28;21003;-80
2023/04/14 07:21:32;;;;;;;5.03;3.37;;;;;;;17.08;52.91;93610.84;5074284;28;20925;-81
2023/04/14 07:24:00;;;;;;;5.37;3.93;;;;;;;17.24;51.68;93583.94;5072837;28;20485;-80
2023/04/14 07:26:27;;;;;;;7.53;4.20;;;;;;;17.28;49.92;93574.56;5073421;28;20454;-81
2023/04/14 07:28:55;;;;;;;7.50;3.90;;;;;;;17.63;48.78;93569.06;5054720;28;20442;-80
2023/04/14 07:31:22;;;;;;;5.70;4.07;;;;;;;17.92;48.85;93563.34;5037886;28;20939;-81
2023/04/14 07:33:49;;;;;;;5.67;3.47;;;;;;;18.17;47.21;93571.44;5075056;28;20904;-80
2023/04/14 07:36:16;;;;;;;6.90;4.03;;;;;;;18.20;45.88;93578.19;5073860;28;20453;-81
2023/04/14 07:38:42;;;;;;;9.60;4.30;;;;;;;18.31;47.10;93568.75;5075124;28;20439;-80
2023/04/14 07:41:11;;;;;;;10.40;3.73;;;;;;;18.24;46.75;93572.25;5074738;28;20451;-80
2023/04/14 07:43:38;;;;;;;6.33;3.93;;;;;;;18.50;47.11;93584.66;5075009;28;20480;-79
2023/04/14 07:46:07;;;;;;;5.00;3.87;;;;;;;18.46;46.26;93579.94;5075028;28;20437;-81
2023/04/14 07:48:35;;;;;;;8.77;4.37;;;;;;;18.14;46.62;93579.00;5075162;28;20440;-83
2023/04/14 07:53:43;;;;;;;6.23;4.03;;;;;;;17.92;48.10;93594.38;5052961;28;20484;-80
2023/04/14 07:56:12;;;;;;;4.87;4.37;;;;;;;17.75;48.61;93585.22;5074875;28;20818;-80
2023/04/14 07:58:39;;;;;;;9.00;4.20;;;;;;;18.07;47.76;93589.66;5074925;28;20448;-82
2023/04/14 08:01:06;;;;;;;6.90;3.83;;;;;;;18.06;47.67;93581.91;5076128;28;20907;-85
2023/04/14 08:03:35;;;;;;;5.37;4.37;;;;;;;18.27;48.55;93568.38;5075551;28;20528;-82
2023/04/14 08:06:01;;;;;;;7.13;3.43;;;;;;;18.26;47.03;93564.09;5074934;28;20488;-83
2023/04/14 08:08:28;;;;;;;4.97;3.30;;;;;;;18.47;46.49;93570.94;5074395;28;20838;-82
2023/04/14 08:10:55;;;;;;;7.50;3.70;;;;;;;18.31;47.45;93553.66;5075064;28;20444;-82
2023/04/14 08:13:23;;;;;;;5.93;3.87;;;;;;;18.46;47.89;93559.50;5084062;28;20472;-83
2023/04/14 08:15:50;;;;;;;8.50;4.00;;;;;;;18.59;46.40;93545.38;5069767;28;20811;-81
2023/04/14 08:18:17;;;;;;;8.87;4.60;;;;;;;18.90;47.05;93547.28;5085289;28;20440;-82
2023/04/14 08:20:44;;;;;;;7.33;3.90;;;;;;;19.21;45.95;93543.78;5082636;28;20426;-80
2023/04/14 08:23:11;;;;;;;10.70;4.03;;;;;;;19.57;43.63;93542.31;5081677;28;20469;-80
2023/04/14 08:25:38;;;;;;;6.67;3.67;;;;;;;20.00;43.95;93547.66;5081071;28;20445;-80
2023/04/14 08:28:05;;;;;;;10.60;3.57;;;;;;;20.56;45.57;93544.81;5079558;28;20447;-81
2023/04/14 08:30:33;;;;;;;11.47;4.63;;;;;;;21.02;44.57;93549.50;5079806;28;20457;-80
2023/04/14 08:33:00;;;;;;;5.33;4.20;;;;;;;21.34;39.28;93552.75;5080702;28;20441;-80
2023/04/14 08:35:27;;;;;;;7.60;4.10;;;;;;;21.34;38.66;93534.09;5081700;28;20450;-78
2023/04/14 08:37:53;;;;;;;13.83;4.80;;;;;;;21.46;38.18;93547.47;5079390;28;20941;-79
2023/04/14 08:40:22;;;;;;;4.97;2.97;;;;;;;21.67;40.30;93554.09;5078345;28;20472;-80
2023/04/14 08:42:49;;;;;;;9.90;4.50;;;;;;;21.75;38.08;93571.66;5079422;28;20433;-80
2023/04/14 08:45:18;;;;;;;14.90;3.93;;;;;;;22.02;36.94;93558.66;5078326;28;20498;-80
2023/04/14 08:47:47;;;;;;;18.63;5.10;;;;;;;22.35;37.28;93555.41;5075931;28;20901;-80
2023/04/14 08:50:18;;;;;;;11.03;4.40;;;;;;;22.63;36.23;93565.38;5042575;28;20811;-79
2023/04/14 08:52:47;;;;;;;8.90;3.90;;;;;;;22.59;35.23;93569.56;5074495;28;20446;-80
2023/04/14 08:55:16;;;;;;;8.67;4.30;;;;;;;22.89;36.07;93550.66;5055999;28;20488;-79
2023/04/14 08:57:45;;;;;;;14.43;5.73;;;;;;;22.76;34.33;93546.34;5081438;28;20444;-80
2023/04/14 09:00:14;;;;;;;15.97;5.87;;;;;;;22.78;35.59;93558.44;5096769;28;20448;-79
2023/04/14 09:02:41;;;;;;;11.70;4.30;;;;;;;22.87;36.05;93561.59;5062943;28;20533;-80
2023/04/14 09:05:11;;;;;;;11.87;3.80;;;;;;;22.21;39.02;93544.97;5097004;28;20475;-79
2023/04/14 09:07:38;;;;;;;14.60;4.10;;;;;;;22.64;37.67;93557.09;5097157;28;20781;-80
2023/04/14 09:10:07;;;;;;;28.63;5.17;;;;;;;22.93;36.11;93554.47;5097038;28;20430;-79
2023/04/14 09:12:34;;;;;;;11.57;4.23;;;;;;;23.25;32.41;93550.28;5097215;28;20434;-80
2023/04/14 09:15:01;;;;;;;11.70;4.57;;;;;;;23.60;32.05;93566.16;5079326;28;20446;-80
2023/04/14 09:17:30;;;;;;;19.30;4.60;;;;;;;23.96;30.16;93572.91;5092816;28;20476;-79
2023/04/14 09:19:57;;;;;;;17.43;4.20;;;;;;;24.20;29.88;93565.50;5062845;28;20430;-81
2023/04/14 09:22:26;;;;;;;11.10;4.00;;;;;;;24.36;28.41;93586.16;5063061;28;20429;-80
2023/04/14 09:24:52;;;;;;;18.57;5.20;;;;;;;24.40;28.10;93579.22;5097203;28;20477;-79
2023/04/14 09:27:19;;;;;;;33.33;5.50;;;;;;;24.39;28.43;93569.56;5096441;28;20442;-81
2023/04/14 09:29:48;;;;;;;23.63;4.17;;;;;;;24.42;28.29;93565.56;5099422;28;20455;-78
2023/04/14 09:32:15;;;;;;;18.80;4.57;;;;;;;24.44;27.93;93562.66;5099181;28;20428;-80
2023/04/14 09:34:51;;;;;;;12.30;4.90;;;;;;;24.44;27.97;93555.41;5098866;28;20430;-80
2023/04/14 09:37:18;;;;;;;21.37;4.40;;;;;;;24.38;28.13;93553.72;5100475;28;20446;-81
2023/04/14 09:39:49;;;;;;;29.53;5.70;;;;;;;23.92;28.38;93565.59;5098571;28;20462;-81
2023/04/14 09:42:17;;;;;;;23.97;4.47;;;;;;;23.59;28.19;93571.75;5100598;28;20439;-81
2023/04/14 09:44:54;;;;;;;19.43;4.30;;;;;;;23.26;29.63;93557.25;5091001;28;21033;-82
2023/04/14 09:47:23;;;;;;;16.20;5.20;;;;;;;23.13;29.46;93584.28;5082244;28;20920;-82
2023/04/14 09:49:57;;;;;;;8.00;3.47;;;;;;;23.04;29.61;93578.50;5079874;28;20945;-81
2023/04/14 09:52:38;;;;;;;14.30;4.10;;;;;;;22.86;29.87;93600.09;5082111;28;20942;-81
2023/04/14 09:55:08;;;;;;;8.20;4.07;;;;;;;22.76;30.31;93599.84;5081265;28;20455;-80
2023/04/14 09:57:36;;;;;;;29.47;4.13;;;;;;;22.80;30.45;93607.16;5080746;28;20440;-79
2023/04/14 10:00:04;;;;;;;23.27;4.67;;;;;;;22.86;30.42;93616.16;5074360;28;20481;-77
2023/04/14 10:02:46;;;;;;;15.27;4.10;;;;;;;22.91;31.32;93588.69;5081608;28;20449;-79
2023/04/14 10:05:13;;;;;;;23.40;7.20;;;;;;;22.89;30.49;93590.78;5080663;28;20509;-78
2023/04/14 10:07:40;;;;;;;11.63;4.10;;;;;;;22.80;30.57;93619.72;5080311;28;20460;-78
2023/04/14 10:10:12;;;;;;;13.80;3.80;;;;;;;22.65;30.96;93624.78;5078554;28;20504;-79
2023/04/14 10:12:41;;;;;;;15.20;4.43;;;;;;;22.61;31.11;93613.72;5044078;28;20482;-78
2023/04/14 10:15:09;;;;;;;17.30;3.77;;;;;;;22.50;31.45;93619.88;5078125;28;20439;-78
2023/04/14 10:17:37;;;;;;;24.20;4.83;;;;;;;22.41;31.86;93643.50;5059631;28;20524;-80
2023/04/14 10:20:05;;;;;;;22.97;5.67;;;;;;;22.16;32.20;93633.03;5059395;28;20949;-79
2023/04/14 10:22:32;;;;;;;12.70;4.10;;;;;;;21.92;32.77;93644.69;5077169;28;20485;-77
2023/04/14 10:25:00;;;;;;;7.90;3.77;;;;;;;21.91;33.45;93661.78;5068664;28;20494;-80
2023/04/14 10:27:30;;;;;;;7.50;4.03;;;;;;;21.78;34.69;93678.81;5076479;28;20844;-81
2023/04/14 10:29:58;;;;;;;20.07;4.30;;;;;;;21.53;35.18;93654.94;5066332;28;20461;-79
2023/04/14 10:32:30;;;;;;;10.03;4.33;;;;;;;21.43;35.99;93685.91;5076981;28;20445;-79
2023/04/14 10:35:00;;;;;;;9.57;4.13;;;;;;;21.54;36.66;93699.28;5073203;28;20445;-80
2023/04/14 10:37:27;;;;;;;13.60;4.43;;;;;;;21.58;36.74;93692.44;5068598;28;20450;-80
2023/04/14 10:39:56;;;;;;;7.73;3.53;;;;;;;21.68;37.94;93720.44;5074386;28;20453;-78
2023/04/14 10:42:23;;;;;;;18.37;5.77;;;;;;;21.46;39.53;93766.34;5076953;28;20507;-79
2023/04/14 10:45:05;;;;;;;13.77;4.97;;;;;;;21.37;41.41;93769.53;5057176;28;20532;-79
2023/04/14 10:47:34;;;;;;;15.17;5.00;;;;;;;21.17;42.65;93783.06;5037826;28;20449;-80
2023/04/14 10:50:11;;;;;;;6.37;3.87;;;;;;;21.03;42.66;93793.88;5068248;28;20449;-79
2023/04/14 10:52:38;;;;;;;5.60;3.83;;;;;;;20.97;44.47;93812.59;5075918;28;20486;-79
2023/04/14 10:55:11;;;;;;;12.30;4.43;;;;;;;20.87;42.45;93830.97;5040134;28;20453;-79
2023/04/14 10:57:41;;;;;;;4.83;3.47;;;;;;;20.68;44.13;93830.09;5062842;28;20447;-79
2023/04/14 11:00:24;;;;;;;11.53;4.93;;;;;;;20.65;43.59;93844.69;5075150;28;20780;-80
2023/04/14 11:02:58;;;;;;;5.07;2.90;;;;;;;20.44;48.94;93836.22;5065548;28;20461;-80
2023/04/14 11:05:26;;;;;;;8.30;2.87;;;;;;;19.99;49.36;93828.31;5074161;28;20490;-77
2023/04/14 11:07:57;;;;;;;4.70;2.80;;;;;;;19.68;51.44;93861.84;5074344;28;20524;-76
2023/04/14 11:10:31;;;;;;;8.50;2.60;;;;;;;19.50;51.33;93888.25;5075348;28;20472;-78
2023/04/14 11:13:02;;;;;;;2.60;2.40;;;;;;;18.94;52.38;93906.56;5076042;28;20847;-78
2023/04/14 11:15:50;;;;;;;3.47;1.80;;;;;;;18.43;51.95;93915.88;5072736;28;20446;-78
2023/04/14 11:18:21;;;;;;;2.17;1.70;;;;;;;17.68;53.11;93908.09;5074884;28;20466;-79
2023/04/14 11:20:47;;;;;;;1.83;1.50;;;;;;;16.98;55.37;93933.75;5075129;28;20460;-77
2023/04/14 11:23:15;;;;;;;1.77;1.20;;;;;;;16.30;56.16;93935.16;5074921;28;20456;-79
2023/04/14 11:25:42;;;;;;;4.17;1.37;;;;;;;15.98;56.34;93942.53;5075285;28;20525;-78
2023/04/14 11:28:09;;;;;;;3.83;1.20;;;;;;;15.84;57.57;93943.38;5075115;28;20503;-78
2023/04/14 11:30:36;;;;;;;1.77;1.33;;;;;;;15.78;57.57;93952.06;5074973;28;20456;-78
2023/04/14 11:33:06;;;;;;;1.70;1.40;;;;;;;15.59;57.81;93958.72;5066444;28;20920;-78
2023/04/14 11:35:32;;;;;;;1.43;1.20;;;;;;;15.38;57.73;93953.34;5074951;28;20464;-78
2023/04/14 11:38:00;;;;;;;1.80;1.20;;;;;;;15.23;57.73;93973.63;5074729;28;20463;-78
2023/04/14 11:40:28;;;;;;;6.03;1.30;;;;;;;15.03;57.84;93973.31;5074095;28;20440;-78
2023/04/14 11:42:56;;;;;;;3.93;2.57;;;;;;;15.04;58.06;93975.00;5074403;28;20452;-78